Time;durP1;ratioP1;P1;durP2;ratioP2;P2;SDS_P1;SDS_P2;PMS_P1;PMS_P2;Temp;Humidity;BMP_temperature;BMP_pressure;BME280_temperature;BME280_humidity;BME280_pressure;Samples;Min_cycle;Max_cycle;Signal;HPM_P1;HPM_P2
2022/08/10 02:48:20;;;;;;;2.63;0.60;;;17.20;76.50;;;;;;4924580;23;88329;-74
2022/08/10 02:50:55;;;;;;;1.13;0.35;;;17.10;76.70;;;;;;4806709;29;86888;-77
2022/08/10 02:53:24;;;;;;;4.88;0.63;;;17.10;77.20;;;;;;4825060;29;86934;-74
2022/08/10 02:56:09;;;;;;;1.92;0.60;;;17.10;77.50;;;;;;4825780;29;87055;-74
2022/08/10 02:58:42;;;;;;;1.98;0.47;;;17.00;77.30;;;;;;4825173;29;86290;-75
2022/08/10 03:01:12;;;;;;;1.77;0.60;;;17.00;77.40;;;;;;4825524;29;88301;-73
2022/08/10 03:03:50;;;;;;;1.83;0.52;;;17.00;77.30;;;;;;4823898;29;87153;-76
2022/08/10 03:06:20;;;;;;;1.77;0.60;;;17.00;77.30;;;;;;4825214;29;88080;-73
2022/08/10 03:08:48;;;;;;;2.17;0.63;;;16.80;77.70;;;;;;4824878;29;87458;-74
2022/08/10 03:11:24;;;;;;;1.60;0.60;;;16.70;78.70;;;;;;4825896;29;88193;-74
2022/08/10 03:13:52;;;;;;;3.70;0.30;;;16.70;78.20;;;;;;4808619;29;88014;-74
2022/08/10 03:16:20;;;;;;;2.42;0.77;;;16.80;78.20;;;;;;4824449;29;87094;-72
2022/08/10 03:18:47;;;;;;;3.22;0.60;;;16.70;79.00;;;;;;4823588;29;87060;-71
2022/08/10 03:21:15;;;;;;;1.77;0.60;;;16.60;77.90;;;;;;4825663;29;86943;-73
2022/08/10 03:23:43;;;;;;;2.15;0.80;;;16.60;77.70;;;;;;4822820;29;87065;-73
2022/08/10 03:26:11;;;;;;;2.08;0.52;;;16.60;77.80;;;;;;4823994;29;87015;-74
2022/08/10 03:28:37;;;;;;;1.80;0.52;;;16.60;78.30;;;;;;4817104;29;86711;-74
2022/08/10 03:31:03;;;;;;;1.75;0.60;;;16.60;78.90;;;;;;4818665;29;88344;-75
2022/08/10 03:33:32;;;;;;;1.85;0.63;;;16.70;79.00;;;;;;4821143;29;87316;-74
2022/08/10 03:35:58;;;;;;;;;;;16.60;78.80;;;;;;4819095;29;87245;-73
2022/08/10 03:38:24;;;;;;;1.50;0.50;;;16.60;79.30;;;;;;4821081;29;87411;-74
2022/08/10 03:40:52;;;;;;;1.35;0.52;;;16.60;78.40;;;;;;4822130;29;87268;-74
2022/08/10 03:43:20;;;;;;;3.38;0.90;;;16.60;78.70;;;;;;4821293;29;87468;-74
2022/08/10 03:45:50;;;;;;;2.83;0.50;;;16.50;79.90;;;;;;4822691;29;87079;-74
2022/08/10 03:48:18;;;;;;;2.60;0.60;;;16.40;79.70;;;;;;4817741;29;86328;-73
2022/08/10 03:50:45;;;;;;;3.00;0.60;;;16.40;79.90;;;;;;4822858;29;87247;-74
2022/08/10 03:53:12;;;;;;;2.10;0.57;;;16.40;80.20;;;;;;4820694;29;88561;-74
2022/08/10 03:55:38;;;;;;;2.88;0.50;;;16.30;80.60;;;;;;4817043;29;89936;-73
2022/08/10 03:58:04;;;;;;;2.13;0.57;;;16.30;80.60;;;;;;4823071;29;86936;-74
2022/08/10 04:00:33;;;;;;;5.18;0.57;;;16.20;81.40;;;;;;4823685;29;87343;-74
2022/08/10 04:03:03;;;;;;;1.50;0.40;;;16.30;80.40;;;;;;4815815;29;87861;-74
2022/08/10 04:05:30;;;;;;;2.75;0.60;;;16.20;80.90;;;;;;4821950;29;86880;-74
2022/08/10 04:07:57;;;;;;;2.38;0.60;;;16.20;81.40;;;;;;4814723;29;86692;-75
2022/08/10 04:10:23;;;;;;;1.65;0.50;;;16.10;82.70;;;;;;4817418;29;87640;-73
2022/08/10 04:12:49;;;;;;;5.45;0.57;;;16.10;82.30;;;;;;4823601;29;88170;-72
2022/08/10 04:15:14;;;;;;;3.92;0.60;;;16.10;82.20;;;;;;4822780;29;86991;-72
2022/08/10 04:17:40;;;;;;;2.20;0.60;;;16.10;82.60;;;;;;4822204;29;87162;-74
2022/08/10 04:20:23;;;;;;;1.33;0.60;;;16.00;82.30;;;;;;4821148;29;87979;-73
2022/08/10 04:22:52;;;;;;;7.38;0.65;;;16.10;81.70;;;;;;4823867;29;87811;-72
2022/08/10 04:25:19;;;;;;;4.85;0.60;;;16.10;80.90;;;;;;4823634;29;86616;-75
2022/08/10 04:27:46;;;;;;;2.72;0.88;;;16.20;81.50;;;;;;4823962;29;87400;-74
2022/08/10 04:30:12;;;;;;;2.97;0.43;;;16.20;82.10;;;;;;4823226;29;87305;-75
2022/08/10 04:32:39;;;;;;;2.80;0.50;;;16.30;80.90;;;;;;4824982;29;87276;-75
2022/08/10 04:35:08;;;;;;;1.67;0.55;;;16.30;80.60;;;;;;4823106;29;86846;-74
2022/08/10 04:37:36;;;;;;;1.80;0.70;;;16.50;81.30;;;;;;4820526;29;86586;-74
2022/08/10 04:40:03;;;;;;;2.92;0.82;;;17.10;78.80;;;;;;4822621;29;87689;-75
2022/08/10 04:42:29;;;;;;;3.25;0.47;;;17.70;77.60;;;;;;4823287;29;89018;-75
2022/08/10 04:44:56;;;;;;;2.20;0.70;;;18.10;76.70;;;;;;4823945;29;87875;-75
2022/08/10 04:47:21;;;;;;;2.15;0.60;;;18.60;76.30;;;;;;4816934;29;87062;-73
2022/08/10 04:49:47;;;;;;;4.25;0.82;;;18.80;73.10;;;;;;4823398;29;87346;-73
2022/08/10 04:52:13;;;;;;;2.75;0.73;;;19.60;73.10;;;;;;4824010;29;86911;-75
2022/08/10 04:54:39;;;;;;;2.03;0.75;;;20.60;70.10;;;;;;4823310;29;86937;-75
2022/08/10 04:57:04;;;;;;;1.98;0.60;;;21.40;68.20;;;;;;4821500;29;87520;-74
2022/08/10 04:59:30;;;;;;;2.88;0.70;;;22.00;66.70;;;;;;4821187;29;88596;-74
2022/08/10 05:01:56;;;;;;;1.40;0.70;;;22.60;64.40;;;;;;4823885;29;86333;-74
2022/08/10 05:04:22;;;;;;;2.50;0.75;;;23.10;62.40;;;;;;4823078;29;87007;-79
2022/08/10 05:06:47;;;;;;;3.10;0.70;;;22.90;61.60;;;;;;4822611;29;87181;-77
2022/08/10 05:09:13;;;;;;;1.88;1.02;;;23.10;60.80;;;;;;4825335;29;88129;-75
2022/08/10 05:11:39;;;;;;;1.95;0.90;;;23.70;58.70;;;;;;4816112;29;87277;-76
2022/08/10 05:14:04;;;;;;;2.72;1.00;;;24.20;57.70;;;;;;4826292;29;87044;-77
2022/08/10 05:16:30;;;;;;;3.08;0.85;;;24.90;56.70;;;;;;4826110;29;87077;-76
2022/08/10 05:18:56;;;;;;;3.47;1.38;;;25.50;54.80;;;;;;4826531;29;86977;-76
2022/08/10 05:21:21;;;;;;;1.77;0.90;;;25.80;53.20;;;;;;4826452;29;87076;-76
2022/08/10 05:23:47;;;;;;;2.42;0.73;;;26.30;53.50;;;;;;4827105;29;87338;-76
2022/08/10 05:26:13;;;;;;;2.42;0.93;;;26.70;53.10;;;;;;4829082;29;86983;-78
2022/08/10 05:28:38;;;;;;;1.75;0.98;;;27.30;52.60;;;;;;4824313;29;87301;-76
2022/08/10 05:31:04;;;;;;;3.28;0.95;;;27.90;51.50;;;;;;4822324;29;87750;-77
2022/08/10 05:33:30;;;;;;;2.08;1.30;;;28.40;50.50;;;;;;4824696;29;87860;-77
2022/08/10 05:35:56;;;;;;;2.75;0.85;;;28.90;48.80;;;;;;4825321;29;87074;-78
2022/08/10 05:38:24;;;;;;;3.03;1.27;;;29.40;48.10;;;;;;4825002;29;87235;-77
2022/08/10 05:40:50;;;;;;;2.83;1.25;;;29.70;48.10;;;;;;4825055;29;87343;-76
2022/08/10 05:43:20;;;;;;;3.83;0.80;;;30.10;47.50;;;;;;4825824;29;87779;-75
2022/08/10 05:45:48;;;;;;;2.30;0.90;;;30.30;45.40;;;;;;4820884;29;87586;-77
2022/08/10 05:48:13;;;;;;;3.65;1.08;;;30.50;45.90;;;;;;4819604;29;87322;-78
2022/08/10 05:50:40;;;;;;;4.55;1.33;;;30.90;46.00;;;;;;4824603;29;87853;-78
2022/08/10 05:53:05;;;;;;;3.00;1.23;;;31.30;44.10;;;;;;4824849;29;87162;-76
2022/08/10 05:55:31;;;;;;;2.92;1.58;;;31.70;43.30;;;;;;4814435;29;86929;-77
2022/08/10 05:57:58;;;;;;;5.25;0.95;;;32.30;42.80;;;;;;4823804;29;87855;-75
2022/08/10 06:00:25;;;;;;;5.53;1.20;;;32.70;42.20;;;;;;4825179;29;88891;-77
2022/08/10 06:03:02;;;;;;;4.10;1.05;;;31.40;42.60;;;;;;4824921;29;87106;-78
2022/08/10 06:05:33;;;;;;;4.72;1.00;;;31.50;42.70;;;;;;4819409;29;86467;-78
2022/08/10 06:08:12;;;;;;;3.65;1.30;;;31.60;42.60;;;;;;4823913;29;87795;-77
2022/08/10 06:10:40;;;;;;;4.30;1.25;;;31.60;42.90;;;;;;4823937;29;87414;-77
2022/08/10 06:15:56;;;;;;;2.13;0.75;;;32.50;41.50;;;;;;4818454;29;86214;-77
2022/08/10 06:18:23;;;;;;;3.55;1.13;;;32.60;41.50;;;;;;4823154;29;87976;-77
2022/08/10 06:20:50;;;;;;;3.67;1.25;;;32.80;41.70;;;;;;4823115;29;87937;-78
2022/08/10 06:23:16;;;;;;;9.90;1.60;;;32.50;41.30;;;;;;4822242;29;88058;-77
2022/08/10 06:25:42;;;;;;;3.65;1.02;;;32.20;43.50;;;;;;4822639;29;87495;-77
2022/08/10 06:28:12;;;;;;;6.07;1.45;;;32.40;40.70;;;;;;4821656;29;87794;-78
2022/08/10 06:30:39;;;;;;;3.22;1.23;;;31.70;41.90;;;;;;4824422;29;86857;-77
2022/08/10 06:33:07;;;;;;;2.28;1.25;;;31.90;41.00;;;;;;4825463;29;86936;-78
2022/08/10 06:35:35;;;;;;;6.18;1.10;;;31.60;42.70;;;;;;4819459;29;87072;-77
2022/08/10 06:38:03;;;;;;;3.05;0.85;;;33.80;40.90;;;;;;4822219;29;88333;-77
2022/08/10 06:40:37;;;;;;;3.05;1.50;;;35.80;39.10;;;;;;4822103;29;86465;-77
2022/08/10 06:43:08;;;;;;;3.67;1.63;;;36.60;36.30;;;;;;4824120;29;86954;-77
2022/08/10 06:45:49;;;;;;;6.10;1.88;;;37.20;36.40;;;;;;4815570;29;86991;-77
2022/08/10 06:48:23;;;;;;;2.92;1.40;;;38.30;34.50;;;;;;4831883;29;89753;-77
2022/08/10 06:50:53;;;;;;;6.13;1.88;;;38.90;34.70;;;;;;4830677;29;88824;-77
2022/08/10 06:53:27;;;;;;;3.45;1.90;;;39.00;34.10;;;;;;4826416;29;87253;-75
2022/08/10 06:56:09;;;;;;;5.38;2.17;;;39.20;34.40;;;;;;4823278;29;87356;-76
2022/08/10 06:58:40;;;;;;;2.08;1.52;;;40.00;34.10;;;;;;4822225;29;87187;-76
2022/08/10 07:01:08;;;;;;;3.10;1.95;;;40.90;33.40;;;;;;4823019;29;87301;-76
2022/08/10 07:03:45;;;;;;;5.10;2.92;;;41.30;33.00;;;;;;4822797;29;87162;-77
2022/08/10 07:06:14;;;;;;;5.03;2.15;;;40.70;32.50;;;;;;4823666;29;87107;-75
2022/08/10 07:08:40;;;;;;;1.90;1.55;;;40.90;34.10;;;;;;4803178;29;87774;-79
2022/08/10 07:11:08;;;;;;;4.53;2.42;;;41.00;33.20;;;;;;4824598;29;88605;-79
2022/08/10 07:13:38;;;;;;;9.05;3.22;;;41.40;33.40;;;;;;4822579;29;87792;-79
2022/08/10 07:16:09;;;;;;;6.40;2.20;;;40.70;34.70;;;;;;4820010;29;87115;-79
2022/08/10 07:18:36;;;;;;;3.55;1.98;;;40.50;35.30;;;;;;4822633;29;87824;-77
2022/08/10 07:21:03;;;;;;;3.83;2.55;;;41.20;34.40;;;;;;4822714;29;87101;-77
2022/08/10 07:23:30;;;;;;;3.45;2.40;;;41.50;33.50;;;;;;4823255;29;87316;-79
2022/08/10 07:25:58;;;;;;;2.90;2.45;;;42.10;33.70;;;;;;4821513;29;87189;-80
2022/08/10 07:28:25;;;;;;;4.40;2.70;;;43.10;32.30;;;;;;4824940;29;87010;-81
2022/08/10 07:30:52;;;;;;;8.85;3.15;;;43.00;32.90;;;;;;4824056;29;87896;-78
2022/08/10 07:33:21;;;;;;;3.97;1.98;;;41.50;33.10;;;;;;4821457;29;87290;-77
2022/08/10 07:35:48;;;;;;;3.50;2.63;;;40.60;33.80;;;;;;4820815;29;86671;-78
2022/08/10 07:38:24;;;;;;;7.03;4.43;;;40.20;34.90;;;;;;4822428;29;88657;-79
2022/08/10 07:40:52;;;;;;;4.28;2.95;;;41.60;33.50;;;;;;4822181;29;88837;-79
2022/08/10 07:43:21;;;;;;;;;;;41.60;33.40;;;;;;4822578;29;86631;-79
2022/08/10 07:45:48;;;;;;;3.83;2.85;;;42.60;33.40;;;;;;4821567;29;86940;-80
2022/08/10 07:48:27;;;;;;;6.03;2.88;;;44.00;31.30;;;;;;4821041;29;87777;-79
2022/08/10 07:50:59;;;;;;;4.57;2.78;;;43.70;31.90;;;;;;4824601;29;86919;-78
2022/08/10 07:53:29;;;;;;;3.30;2.97;;;43.70;31.00;;;;;;4823416;29;87032;-77
2022/08/10 07:55:58;;;;;;;3.45;3.15;;;42.60;31.60;;;;;;4821719;29;85826;-78
2022/08/10 07:58:28;;;;;;;3.80;3.40;;;43.30;31.30;;;;;;4821699;29;87252;-78
2022/08/10 08:00:56;;;;;;;3.85;2.45;;;43.00;31.70;;;;;;4824995;29;87722;-81
2022/08/10 08:03:24;;;;;;;3.22;2.67;;;42.60;32.00;;;;;;4821734;29;88060;-79
2022/08/10 08:05:51;;;;;;;3.83;3.10;;;43.20;31.90;;;;;;4815369;29;87385;-80
2022/08/10 08:08:20;;;;;;;4.00;3.10;;;43.90;31.20;;;;;;4818823;29;87594;-79
2022/08/10 08:10:47;;;;;;;4.13;2.83;;;44.10;31.10;;;;;;4821549;29;87442;-78
2022/08/10 08:13:15;;;;;;;6.78;2.85;;;44.50;30.40;;;;;;4820508;29;87118;-78
2022/08/10 08:15:43;;;;;;;5.68;2.92;;;44.90;30.70;;;;;;4827987;29;86950;-79
2022/08/10 08:18:11;;;;;;;3.47;2.92;;;45.40;29.90;;;;;;4822857;29;87403;-83
2022/08/10 08:20:38;;;;;;;4.25;3.72;;;46.00;29.80;;;;;;4824808;29;87850;-80
2022/08/10 08:23:04;;;;;;;3.80;3.40;;;45.80;29.70;;;;;;4823833;29;87210;-81
2022/08/10 08:25:32;;;;;;;3.90;3.25;;;46.00;29.80;;;;;;4825840;29;87178;-79
2022/08/10 08:28:00;;;;;;;4.20;3.60;;;46.70;29.40;;;;;;4818562;29;88014;-81
2022/08/10 08:30:27;;;;;;;5.53;3.78;;;47.30;29.50;;;;;;4826894;29;87337;-83
2022/08/10 08:32:54;;;;;;;6.15;4.50;;;45.80;29.70;;;;;;4823685;29;87243;-79
2022/08/10 08:35:21;;;;;;;6.05;4.13;;;46.20;29.30;;;;;;4822976;29;87570;-80
2022/08/10 08:37:51;;;;;;;4.88;3.65;;;45.10;29.90;;;;;;4827073;29;87140;-80
2022/08/10 08:40:29;;;;;;;5.30;3.97;;;46.60;29.40;;;;;;4826930;29;87151;-80
2022/08/10 08:43:26;;;;;;;5.40;4.28;;;47.80;28.70;;;;;;4826759;29;87149;-80
2022/08/10 08:46:27;;;;;;;5.45;3.90;;;49.20;28.40;;;;;;4829446;29;86623;-78
2022/08/10 08:49:35;;;;;;;5.70;5.20;;;49.40;28.40;;;;;;4823505;29;87359;-78
2022/08/10 08:52:23;;;;;;;5.85;4.03;;;49.90;28.20;;;;;;4820631;29;87041;-81
2022/08/10 08:55:30;;;;;;;4.80;4.10;;;49.10;27.90;;;;;;4824240;29;87872;-79
2022/08/10 08:58:24;;;;;;;5.20;4.43;;;49.30;28.30;;;;;;4825559;29;86988;-83
2022/08/10 09:01:34;;;;;;;5.28;4.82;;;49.50;27.90;;;;;;4820979;29;87336;-78
2022/08/10 09:04:06;;;;;;;5.38;4.97;;;50.50;27.00;;;;;;4821467;29;87157;-78
2022/08/10 09:07:02;;;;;;;6.47;5.88;;;50.50;26.90;;;;;;4826072;29;87230;-78
2022/08/10 09:09:54;;;;;;;7.30;6.70;;;49.20;27.80;;;;;;4823318;29;87357;-78
2022/08/10 09:12:46;;;;;;;7.50;6.82;;;49.50;27.70;;;;;;4810341;29;88304;-80
2022/08/10 09:15:32;;;;;;;6.90;6.38;;;50.70;27.70;;;;;;4826391;29;86891;-79
2022/08/10 09:18:11;;;;;;;7.57;6.97;;;50.70;27.50;;;;;;4825124;29;87540;-79
2022/08/10 09:21:05;;;;;;;7.35;6.63;;;51.50;27.50;;;;;;4822538;29;86950;-79
2022/08/10 09:24:00;;;;;;;8.35;7.03;;;51.10;28.20;;;;;;4822298;29;88124;-79
2022/08/10 09:26:34;;;;;;;7.65;6.95;;;51.30;26.90;;;;;;4820923;29;88802;-78
2022/08/10 09:29:02;;;;;;;8.52;7.57;;;51.50;26.80;;;;;;4821749;29;87221;-79
2022/08/10 09:31:40;;;;;;;6.80;5.80;;;51.70;26.90;;;;;;4823670;29;87111;-78
2022/08/10 09:34:36;;;;;;;8.23;7.35;;;52.10;26.60;;;;;;4822480;29;88382;-78
2022/08/10 09:37:13;;;;;;;8.25;7.15;;;51.60;27.30;;;;;;4823904;29;87141;-77
2022/08/10 09:39:57;;;;;;;8.30;7.22;;;50.40;27.80;;;;;;4818909;29;87490;-79
2022/08/10 09:42:47;;;;;;;7.82;7.03;;;49.30;27.80;;;;;;4821847;29;86212;-76
2022/08/10 09:45:30;;;;;;;8.13;7.43;;;50.30;27.20;;;;;;4816313;29;88134;-75
2022/08/10 09:48:25;;;;;;;7.93;7.22;;;51.50;27.20;;;;;;4819465;29;87511;-77
2022/08/10 09:51:03;;;;;;;6.80;6.07;;;50.60;27.10;;;;;;4816023;29;88497;-78
2022/08/10 09:53:42;;;;;;;7.72;6.97;;;51.10;26.80;;;;;;4821139;29;86483;-78
2022/08/10 09:56:30;;;;;;;6.55;5.90;;;52.10;26.90;;;;;;4821930;29;87781;-78
2022/08/10 09:59:17;;;;;;;10.82;6.82;;;50.60;27.40;;;;;;4820344;29;87805;-78
2022/08/10 10:01:52;;;;;;;6.97;6.38;;;50.40;27.40;;;;;;4818824;29;87213;-78
2022/08/10 10:04:27;;;;;;;6.55;6.00;;;50.20;26.60;;;;;;4820120;29;87184;-79
2022/08/10 10:07:00;;;;;;;6.28;5.75;;;49.40;27.90;;;;;;4824193;29;86990;-78
2022/08/10 10:09:47;;;;;;;6.50;5.90;;;50.20;27.00;;;;;;4822500;29;87484;-78
2022/08/10 10:12:25;;;;;;;6.40;5.18;;;49.20;27.80;;;;;;4822516;29;87233;-78
2022/08/10 10:15:20;;;;;;;6.05;5.53;;;47.60;28.20;;;;;;4818781;29;88008;-78
2022/08/10 10:17:51;;;;;;;7.00;6.40;;;47.30;28.10;;;;;;4819740;29;89214;-78
2022/08/10 10:20:26;;;;;;;8.13;5.10;;;45.40;29.00;;;;;;4806734;29;89868;-77
2022/08/10 10:23:10;;;;;;;4.30;3.97;;;42.70;30.40;;;;;;4820538;29;87236;-78
2022/08/10 10:25:39;;;;;;;7.00;3.97;;;41.40;31.70;;;;;;4818421;29;87186;-77
2022/08/10 10:28:37;;;;;;;4.47;4.10;;;39.30;32.10;;;;;;4818453;29;88698;-77
2022/08/10 10:31:31;;;;;;;4.00;3.60;;;36.40;35.80;;;;;;4820165;29;87489;-77
2022/08/10 10:34:24;;;;;;;7.30;3.90;;;33.70;40.60;;;;;;4811627;29;87099;-77
2022/08/10 10:36:51;;;;;;;5.78;2.17;;;32.40;39.60;;;;;;4818284;29;86355;-79
2022/08/10 10:39:20;;;;;;;2.85;2.55;;;32.50;42.70;;;;;;4817504;29;87067;-78
2022/08/10 10:42:17;;;;;;;6.07;2.35;;;31.80;41.70;;;;;;4820561;29;88155;-79
2022/08/10 10:44:55;;;;;;;2.78;1.45;;;31.30;43.60;;;;;;4818357;29;87998;-78
2022/08/10 10:47:45;;;;;;;4.55;1.23;;;31.50;42.50;;;;;;4825130;29;87163;-79
2022/08/10 10:50:14;;;;;;;4.88;1.83;;;31.50;43.10;;;;;;4814644;29;88244;-78
2022/08/10 10:52:55;;;;;;;2.38;1.10;;;30.80;42.70;;;;;;4818630;29;87288;-78
2022/08/10 10:55:45;;;;;;;5.40;1.75;;;30.70;44.00;;;;;;4823020;29;86869;-78
2022/08/10 10:58:29;;;;;;;6.57;1.60;;;30.30;46.50;;;;;;4825020;29;87272;-78
2022/08/10 11:01:02;;;;;;;1.58;1.35;;;30.10;48.60;;;;;;4821609;29;87155;-79
2022/08/10 11:04:10;;;;;;;2.72;1.35;;;29.60;46.80;;;;;;4817005;29;87033;-77
2022/08/10 11:06:56;;;;;;;2.20;1.17;;;29.50;47.00;;;;;;4792986;29;87219;-78
2022/08/10 11:09:32;;;;;;;5.63;1.48;;;29.90;47.70;;;;;;4825531;29;86962;-79
2022/08/10 11:12:02;;;;;;;2.05;1.08;;;30.20;46.30;;;;;;4824716;29;88229;-78
2022/08/10 11:14:47;;;;;;;3.78;1.27;;;30.40;45.70;;;;;;4825905;29;88364;-78
2022/08/10 11:17:25;;;;;;;1.33;1.10;;;30.30;46.40;;;;;;4826140;29;87404;-79
2022/08/10 11:19:51;;;;;;;4.38;1.33;;;30.10;47.30;;;;;;4825019;29;87036;-78
2022/08/10 11:22:27;;;;;;;2.88;1.27;;;30.10;46.90;;;;;;4823317;29;88182;-78
2022/08/10 11:25:11;;;;;;;3.05;1.20;;;29.90;49.20;;;;;;4823684;29;87091;-78
2022/08/10 11:28:07;;;;;;;4.57;1.65;;;29.60;49.20;;;;;;4824031;29;86939;-78
2022/08/10 11:30:44;;;;;;;4.53;1.10;;;29.40;48.80;;;;;;4818465;29;86423;-78
2022/08/10 11:33:16;;;;;;;2.85;1.05;;;29.50;48.60;;;;;;4823628;29;89184;-78
2022/08/10 11:35:45;;;;;;;3.75;1.40;;;29.30;49.50;;;;;;4824398;29;87214;-78
2022/08/10 11:38:14;;;;;;;2.22;1.00;;;29.10;48.80;;;;;;4818765;29;87832;-78
2022/08/10 11:41:08;;;;;;;2.33;1.02;;;29.40;48.10;;;;;;4821164;29;86981;-78
2022/08/10 11:43:44;;;;;;;2.88;1.38;;;29.40;48.20;;;;;;4819931;29;86953;-78
2022/08/10 11:46:33;;;;;;;5.05;0.73;;;29.00;50.20;;;;;;4818921;29;87034;-77
2022/08/10 11:49:08;;;;;;;2.20;0.88;;;28.90;49.00;;;;;;4819283;29;88199;-77
2022/08/10 11:51:44;;;;;;;;;;;28.90;49.60;;;;;;4822192;29;87186;-76
2022/08/10 11:54:30;;;;;;;3.47;1.40;;;29.20;48.80;;;;;;4823368;29;86905;-76
2022/08/10 11:56:58;;;;;;;2.80;0.98;;;29.30;50.70;;;;;;4823024;29;86959;-77
2022/08/10 12:02:14;;;;;;;2.13;0.93;;;28.70;49.20;;;;;;4822921;29;86985;-76
2022/08/10 12:04:46;;;;;;;2.70;1.42;;;28.70;51.20;;;;;;4822065;29;88650;-76
2022/08/10 12:07:13;;;;;;;4.55;1.00;;;29.00;48.90;;;;;;4820472;29;87106;-76
2022/08/10 12:09:41;;;;;;;4.30;1.00;;;29.10;49.80;;;;;;4823125;29;87040;-76
2022/08/10 12:12:08;;;;;;;2.28;1.05;;;29.00;49.50;;;;;;4822211;29;86655;-77
2022/08/10 12:14:42;;;;;;;4.80;0.93;;;28.80;50.30;;;;;;4821359;29;87472;-77
2022/08/10 12:17:17;;;;;;;1.92;1.02;;;29.00;49.00;;;;;;4822005;29;87149;-77
2022/08/10 12:19:53;;;;;;;2.10;0.80;;;29.20;50.00;;;;;;4821838;29;87240;-77
2022/08/10 12:22:30;;;;;;;2.30;1.02;;;29.20;49.60;;;;;;4821770;29;86405;-77
2022/08/10 12:25:02;;;;;;;3.42;0.98;;;29.10;49.40;;;;;;4819688;29;87380;-77
2022/08/10 12:27:38;;;;;;;3.63;1.02;;;28.90;48.40;;;;;;4822872;29;87369;-77
2022/08/10 12:30:06;;;;;;;1.95;0.82;;;28.80;49.80;;;;;;4814294;29;88189;-78
2022/08/10 12:32:55;;;;;;;3.90;0.90;;;28.50;48.20;;;;;;4822193;29;87497;-77
2022/08/10 12:35:38;;;;;;;1.85;0.88;;;28.70;45.90;;;;;;4822712;29;87166;-77
2022/08/10 12:38:15;;;;;;;5.28;0.73;;;28.60;47.40;;;;;;4819090;29;87843;-77
2022/08/10 12:40:50;;;;;;;2.00;0.75;;;28.40;46.60;;;;;;4821526;29;87088;-77
2022/08/10 12:43:38;;;;;;;1.80;0.90;;;28.50;46.20;;;;;;4822295;29;87134;-76
2022/08/10 12:46:35;;;;;;;2.05;0.98;;;28.70;45.30;;;;;;4820173;29;87570;-77
2022/08/10 12:49:09;;;;;;;2.97;0.85;;;28.60;46.50;;;;;;4805594;29;87580;-77
2022/08/10 12:51:45;;;;;;;3.50;0.80;;;28.60;47.20;;;;;;4803231;29;88020;-77
2022/08/10 12:54:17;;;;;;;2.30;0.75;;;28.60;46.80;;;;;;4804638;29;87195;-77
2022/08/10 12:57:05;;;;;;;2.35;0.93;;;28.40;47.20;;;;;;4803945;29;88705;-77
2022/08/10 12:59:31;;;;;;;3.22;1.08;;;28.50;46.90;;;;;;4800924;29;89307;-76
2022/08/10 13:01:58;;;;;;;3.85;1.33;;;28.40;46.70;;;;;;4804481;29;88742;-77
2022/08/10 13:04:31;;;;;;;1.55;0.90;;;28.70;48.80;;;;;;4804226;29;87428;-77
2022/08/10 13:07:01;;;;;;;2.22;0.93;;;28.80;44.20;;;;;;4804445;29;88312;-77
2022/08/10 13:09:28;;;;;;;1.95;0.63;;;28.70;43.50;;;;;;4804693;29;87047;-76
2022/08/10 13:12:12;;;;;;;2.10;0.85;;;28.60;44.50;;;;;;4804057;29;87132;-77
2022/08/10 13:14:53;;;;;;;3.58;0.90;;;28.70;45.00;;;;;;4805046;29;86212;-77
2022/08/10 13:17:29;;;;;;;2.65;0.80;;;28.60;44.40;;;;;;4803909;29;88567;-76
2022/08/10 13:19:58;;;;;;;2.42;0.98;;;28.60;44.20;;;;;;4803478;29;86989;-76
2022/08/10 13:22:27;;;;;;;1.55;0.60;;;28.50;46.40;;;;;;4803201;29;88141;-77
2022/08/10 13:24:56;;;;;;;2.70;0.55;;;28.40;46.10;;;;;;4804772;29;87374;-77
2022/08/10 13:27:28;;;;;;;1.75;0.68;;;28.60;46.50;;;;;;4804606;29;87433;-76
2022/08/10 13:30:03;;;;;;;2.08;0.52;;;28.70;48.10;;;;;;4801820;29;87390;-77
2022/08/10 13:32:32;;;;;;;2.88;0.68;;;28.70;45.90;;;;;;4806065;29;86926;-76
2022/08/10 13:35:07;;;;;;;2.22;0.65;;;28.70;46.50;;;;;;4807350;29;87390;-77
2022/08/10 13:37:35;;;;;;;2.30;1.45;;;28.80;44.70;;;;;;4807585;29;86983;-77
2022/08/10 13:40:03;;;;;;;3.88;1.25;;;28.70;45.30;;;;;;4807668;29;86462;-76
2022/08/10 13:42:36;;;;;;;2.53;1.15;;;28.80;46.00;;;;;;4807652;29;87301;-76
2022/08/10 13:45:11;;;;;;;1.95;0.55;;;28.70;46.80;;;;;;4805226;29;86887;-77
2022/08/10 13:47:38;;;;;;;2.38;0.88;;;28.70;44.70;;;;;;4816538;29;88464;-76
2022/08/10 13:50:18;;;;;;;3.55;0.63;;;28.50;45.20;;;;;;4825801;29;87029;-77
2022/08/10 13:52:54;;;;;;;2.53;0.60;;;28.60;44.50;;;;;;4824764;29;87024;-76
2022/08/10 13:55:22;;;;;;;;;;;28.50;45.90;;;;;;4825128;29;87989;-77
2022/08/10 13:57:50;;;;;;;;;;;28.40;44.40;;;;;;4827004;29;88440;-77
2022/08/10 14:00:17;;;;;;;1.83;0.60;;;28.60;45.70;;;;;;4826436;29;87017;-76
2022/08/10 14:02:50;;;;;;;2.38;0.50;;;28.70;45.00;;;;;;4825312;29;87055;-76
2022/08/10 14:05:26;;;;;;;1.83;0.80;;;28.70;44.00;;;;;;4819821;29;86257;-76
2022/08/10 14:07:54;;;;;;;1.70;1.00;;;28.50;44.20;;;;;;4823103;29;87159;-76
2022/08/10 14:10:21;;;;;;;1.20;0.60;;;28.40;46.00;;;;;;4825132;29;87444;-77
2022/08/10 14:12:49;;;;;;;1.73;0.70;;;28.30;44.90;;;;;;4825614;29;87893;-77
2022/08/10 14:15:25;;;;;;;2.20;0.93;;;28.30;44.90;;;;;;4825565;29;87052;-76
2022/08/10 14:17:56;;;;;;;47.30;3.45;;;28.30;44.00;;;;;;4816320;29;88013;-77
2022/08/10 14:20:30;;;;;;;76.25;3.63;;;28.30;46.90;;;;;;4820001;29;88937;-76
2022/08/10 14:23:00;;;;;;;6.20;1.00;;;28.20;45.00;;;;;;4823607;29;86991;-76
2022/08/10 14:25:26;;;;;;;4.88;0.85;;;28.30;44.50;;;;;;4824371;29;87008;-76
2022/08/10 14:27:56;;;;;;;5.00;0.65;;;28.30;45.20;;;;;;4824729;29;87166;-76
2022/08/10 14:30:23;;;;;;;1.58;0.70;;;28.20;46.20;;;;;;4823520;29;87909;-75
2022/08/10 14:32:51;;;;;;;2.08;1.10;;;28.20;44.70;;;;;;4823093;29;86932;-77
2022/08/10 14:35:19;;;;;;;4.00;0.75;;;28.20;46.90;;;;;;4816535;29;88405;-77
2022/08/10 14:37:50;;;;;;;1.92;0.43;;;28.30;46.30;;;;;;4824501;29;88241;-77
2022/08/10 14:40:23;;;;;;;1.85;0.40;;;28.30;46.10;;;;;;4817034;29;87948;-76
2022/08/10 14:42:58;;;;;;;2.70;0.85;;;28.30;44.40;;;;;;4815595;29;86943;-76
2022/08/10 14:45:30;;;;;;;;;;;28.30;45.40;;;;;;4822642;29;88434;-76
2022/08/10 14:48:04;;;;;;;2.47;0.32;;;28.30;45.60;;;;;;4823076;29;88196;-77
2022/08/10 14:50:32;;;;;;;2.55;0.73;;;28.40;45.30;;;;;;4823164;29;86767;-77
2022/08/10 14:53:04;;;;;;;2.88;0.50;;;28.30;46.30;;;;;;4823895;29;87412;-75
2022/08/10 14:55:30;;;;;;;1.83;0.68;;;28.30;45.80;;;;;;4824103;29;86461;-75
2022/08/10 14:57:56;;;;;;;2.75;0.52;;;28.30;46.00;;;;;;4822815;29;86962;-76
2022/08/10 15:00:23;;;;;;;4.97;0.40;;;28.20;46.10;;;;;;4822395;29;87132;-76
2022/08/10 15:02:51;;;;;;;1.70;0.60;;;28.30;45.90;;;;;;4820514;29;88391;-76
2022/08/10 15:05:18;;;;;;;1.92;0.40;;;28.20;46.50;;;;;;4823042;29;87167;-76
2022/08/10 15:07:46;;;;;;;2.20;1.00;;;28.20;44.40;;;;;;4822255;29;88991;-76
2022/08/10 15:10:20;;;;;;;1.30;0.70;;;28.30;44.70;;;;;;4822665;29;87042;-77
2022/08/10 15:12:47;;;;;;;4.05;0.60;;;28.30;44.40;;;;;;4823293;29;86953;-76
2022/08/10 15:15:14;;;;;;;2.67;0.57;;;28.40;45.60;;;;;;4826278;29;87340;-76
2022/08/10 15:17:47;;;;;;;2.55;0.93;;;28.40;43.60;;;;;;4820079;29;88274;-76
2022/08/10 15:20:20;;;;;;;2.95;0.43;;;28.10;45.00;;;;;;4821828;29;87008;-76
2022/08/10 15:22:48;;;;;;;2.72;0.63;;;28.20;46.10;;;;;;4822936;29;86943;-76
2022/08/10 15:25:16;;;;;;;5.32;0.82;;;28.30;46.00;;;;;;4819885;29;87077;-77
2022/08/10 15:27:44;;;;;;;3.17;0.52;;;28.30;44.40;;;;;;4819718;29;88252;-76
2022/08/10 15:30:11;;;;;;;1.95;0.68;;;28.20;44.30;;;;;;4822570;29;87899;-76
2022/08/10 15:38:21;;;;;;;5.10;0.75;;;28.20;45.70;;;;;;4822844;29;86967;-78
2022/08/10 15:40:52;;;;;;;2.78;0.55;;;28.10;45.60;;;;;;4821783;29;87867;-77
2022/08/10 15:43:22;;;;;;;1.45;0.55;;;28.10;46.90;;;;;;4822440;29;87093;-77
2022/08/10 15:46:06;;;;;;;3.15;0.45;;;28.10;46.20;;;;;;4822229;29;86353;-76
2022/08/10 15:48:43;;;;;;;1.45;0.47;;;28.10;45.60;;;;;;4821723;29;86885;-77
2022/08/10 15:51:19;;;;;;;3.17;0.50;;;28.00;44.30;;;;;;4823327;29;86997;-77
2022/08/10 15:53:50;;;;;;;1.95;0.77;;;27.90;44.70;;;;;;4819822;29;88245;-76
2022/08/10 15:56:33;;;;;;;3.47;0.65;;;27.90;45.00;;;;;;4822994;29;87093;-77
2022/08/10 15:59:12;;;;;;;3.22;0.43;;;27.90;45.80;;;;;;4821124;29;87348;-77
2022/08/10 16:01:50;;;;;;;2.45;0.55;;;28.00;46.30;;;;;;4820030;29;87460;-78
2022/08/10 16:04:46;;;;;;;2.15;0.73;;;27.90;45.50;;;;;;4823032;29;87622;-77
2022/08/10 16:07:31;;;;;;;3.80;0.80;;;27.90;45.60;;;;;;4787964;29;87138;-75
2022/08/10 16:10:01;;;;;;;3.85;0.52;;;27.80;45.20;;;;;;4817281;29;87229;-77
2022/08/10 16:12:35;;;;;;;1.42;0.60;;;27.80;45.30;;;;;;4815845;29;86444;-78
2022/08/10 16:15:09;;;;;;;1.55;0.40;;;27.80;44.80;;;;;;4817881;29;87151;-77
2022/08/10 16:17:45;;;;;;;2.97;0.40;;;27.70;45.60;;;;;;4816675;29;87077;-76